Time;durP1;ratioP1;P1;durP2;ratioP2;P2;SDS_P1;SDS_P2;PMS_P1;PMS_P2;Temp;Humidity;BMP_temperature;BMP_pressure;BME280_temperature;BME280_humidity;BME280_pressure;Samples;Min_cycle;Max_cycle;Signal;HPM_P1;HPM_P2
2023/09/30 00:02:06;;;;;;;2.63;2.42;;;;;;;;;;6139490;23;20013;-82
2023/09/30 00:04:33;;;;;;;5.55;3.30;;;;;;;;;;6139430;23;20031;-82
2023/09/30 00:07:05;;;;;;;5.35;2.63;;;;;;;;;;6141368;23;20028;-82
2023/09/30 00:09:34;;;;;;;5.22;3.33;;;;;;;;;;6166523;23;20036;-82
2023/09/30 00:12:04;;;;;;;6.10;4.72;;;;;;;;;;6165749;23;20032;-82
2023/09/30 00:14:33;;;;;;;4.15;3.50;;;;;;;;;;6174622;23;20353;-83
2023/09/30 00:17:00;;;;;;;7.22;3.05;;;;;;;;;;6139101;23;20487;-83
2023/09/30 00:19:32;;;;;;;9.07;3.60;;;;;;;;;;6162767;23;20795;-83
2023/09/30 00:22:01;;;;;;;4.03;3.72;;;;;;;;;;6162078;23;20023;-83
2023/09/30 00:24:29;;;;;;;4.40;3.55;;;;;;;;;;6161607;23;20465;-83
2023/09/30 00:26:57;;;;;;;6.45;3.25;;;;;;;;;;6161759;23;20017;-83
2023/09/30 00:29:27;;;;;;;4.97;3.30;;;;;;;;;;6137946;23;20021;-83
2023/09/30 00:31:56;;;;;;;4.13;3.28;;;;;;;;;;6137074;23;20028;-83
2023/09/30 00:34:23;;;;;;;4.75;4.00;;;;;;;;;;6161643;23;20450;-83
2023/09/30 00:36:51;;;;;;;10.10;3.25;;;;;;;;;;6137764;23;20017;-82
2023/09/30 00:39:18;;;;;;;5.70;3.40;;;;;;;;;;6138420;23;20024;-82
2023/09/30 00:41:50;;;;;;;4.18;3.60;;;;;;;;;;6138821;23;20352;-82
2023/09/30 00:44:18;;;;;;;3.38;3.08;;;;;;;;;;6164080;23;20013;-82
2023/09/30 00:46:46;;;;;;;4.65;4.15;;;;;;;;;;6138695;23;20017;-82
2023/09/30 00:49:14;;;;;;;4.20;3.50;;;;;;;;;;6139204;23;20024;-82
2023/09/30 00:51:42;;;;;;;5.32;3.25;;;;;;;;;;6138422;23;20017;-83
2023/09/30 00:54:09;;;;;;;4.38;3.58;;;;;;;;;;6165147;23;20036;-83
2023/09/30 00:56:44;;;;;;;4.63;3.25;;;;;;;;;;6139064;23;20028;-83
2023/09/30 00:59:15;;;;;;;6.78;3.45;;;;;;;;;;6140533;23;20031;-83
2023/09/30 01:01:44;;;;;;;6.43;3.40;;;;;;;;;;6163197;23;20013;-82
2023/09/30 01:04:12;;;;;;;4.90;3.78;;;;;;;;;;6138354;23;20027;-82
2023/09/30 01:06:39;;;;;;;5.57;3.63;;;;;;;;;;6138744;23;20021;-82
2023/09/30 01:09:06;;;;;;;4.90;4.43;;;;;;;;;;6172683;23;20017;-82
2023/09/30 01:11:36;;;;;;;5.50;3.55;;;;;;;;;;6137944;23;20040;-82
2023/09/30 01:14:05;;;;;;;6.35;3.85;;;;;;;;;;6172644;23;20017;-82
2023/09/30 01:16:33;;;;;;;3.33;3.05;;;;;;;;;;6137782;23;20025;-82
2023/09/30 01:19:04;;;;;;;3.88;2.90;;;;;;;;;;6161489;23;20027;-82
2023/09/30 01:21:35;;;;;;;5.78;2.60;;;;;;;;;;6137946;23;20031;-82
2023/09/30 01:24:02;;;;;;;13.13;3.67;;;;;;;;;;6171075;23;20027;-82
2023/09/30 01:26:30;;;;;;;4.07;3.08;;;;;;;;;;6162812;23;20014;-82
2023/09/30 01:29:01;;;;;;;9.00;3.10;;;;;;;;;;6138047;23;20027;-82
2023/09/30 01:31:28;;;;;;;8.00;4.47;;;;;;;;;;6138092;23;20028;-82
2023/09/30 01:33:55;;;;;;;3.78;3.28;;;;;;;;;;6138658;23;20025;-82
2023/09/30 01:39:18;;;;;;;5.28;3.13;;;;;;;;;;6104066;23;20024;-83
2023/09/30 01:41:48;;;;;;;4.18;2.88;;;;;;;;;;6162663;23;20016;-83
2023/09/30 01:44:16;;;;;;;4.55;3.75;;;;;;;;;;6127764;23;20040;-83
2023/09/30 01:46:45;;;;;;;7.40;3.72;;;;;;;;;;6128114;23;20017;-83
2023/09/30 01:49:15;;;;;;;4.95;3.35;;;;;;;;;;6153100;23;20024;-83
2023/09/30 01:51:43;;;;;;;5.40;3.28;;;;;;;;;;6128202;23;20025;-84
2023/09/30 01:54:12;;;;;;;4.38;3.83;;;;;;;;;;6128568;23;20014;-83
2023/09/30 01:56:43;;;;;;;4.15;3.10;;;;;;;;;;6152123;23;20021;-84
2023/09/30 01:59:13;;;;;;;3.88;3.17;;;;;;;;;;6127980;23;20500;-84
2023/09/30 02:01:40;;;;;;;4.28;3.17;;;;;;;;;;6127107;23;20017;-85
2023/09/30 02:04:07;;;;;;;4.38;3.03;;;;;;;;;;6126671;23;20029;-84
2023/09/30 02:06:40;;;;;;;6.22;3.50;;;;;;;;;;6165994;23;20029;-84
2023/09/30 02:09:08;;;;;;;4.72;3.28;;;;;;;;;;6148805;23;20021;-84
2023/09/30 02:11:41;;;;;;;5.03;3.92;;;;;;;;;;6148457;23;20024;-85
2023/09/30 02:14:12;;;;;;;3.83;2.97;;;;;;;;;;6128610;23;20017;-84
2023/09/30 02:16:40;;;;;;;6.90;3.25;;;;;;;;;;6127331;23;20025;-84
2023/09/30 02:19:11;;;;;;;5.18;3.78;;;;;;;;;;6151882;23;20473;-84
2023/09/30 02:21:40;;;;;;;6.10;3.17;;;;;;;;;;6128057;23;20017;-84
2023/09/30 02:24:10;;;;;;;5.88;4.10;;;;;;;;;;6152573;23;20029;-84
2023/09/30 02:26:39;;;;;;;5.85;3.50;;;;;;;;;;6126891;23;20025;-84
2023/09/30 02:29:07;;;;;;;6.43;3.75;;;;;;;;;;6152164;23;20021;-84
2023/09/30 02:31:36;;;;;;;10.40;3.45;;;;;;;;;;6127779;23;20017;-84
2023/09/30 02:34:05;;;;;;;6.88;3.45;;;;;;;;;;6128450;23;20350;-84
2023/09/30 02:36:39;;;;;;;6.13;3.75;;;;;;;;;;6128843;23;20021;-84
2023/09/30 02:39:09;;;;;;;5.32;3.25;;;;;;;;;;6157538;23;20040;-84
2023/09/30 02:41:37;;;;;;;3.65;3.25;;;;;;;;;;6156636;23;20017;-84
2023/09/30 02:44:06;;;;;;;6.45;3.33;;;;;;;;;;6133719;23;20028;-84
2023/09/30 02:46:38;;;;;;;3.35;3.00;;;;;;;;;;6187140;23;20013;-85
2023/09/30 02:49:07;;;;;;;4.78;3.08;;;;;;;;;;6166983;23;20021;-84
2023/09/30 02:51:34;;;;;;;9.68;3.45;;;;;;;;;;6181503;23;20010;-84
2023/09/30 02:54:03;;;;;;;11.38;3.70;;;;;;;;;;6157610;23;20025;-84
2023/09/30 02:56:31;;;;;;;5.90;3.55;;;;;;;;;;6158034;23;20017;-85
2023/09/30 02:59:01;;;;;;;6.57;3.72;;;;;;;;;;6156911;23;20021;-84
2023/09/30 03:01:28;;;;;;;6.82;2.72;;;;;;;;;;6181829;23;20013;-84
2023/09/30 03:03:59;;;;;;;5.97;3.42;;;;;;;;;;6184095;23;20021;-84
2023/09/30 03:06:26;;;;;;;3.67;3.30;;;;;;;;;;6133066;23;20024;-84
2023/09/30 03:08:56;;;;;;;4.57;3.40;;;;;;;;;;6156743;23;20009;-84
2023/09/30 03:11:23;;;;;;;3.40;3.10;;;;;;;;;;6155185;23;20154;-84
2023/09/30 03:13:55;;;;;;;5.47;4.15;;;;;;;;;;6157276;23;20488;-84
2023/09/30 03:16:25;;;;;;;7.00;4.53;;;;;;;;;;6162835;23;20346;-84
2023/09/30 03:18:52;;;;;;;5.82;3.13;;;;;;;;;;6182940;23;20017;-84
2023/09/30 03:21:21;;;;;;;4.30;3.42;;;;;;;;;;6155364;23;20021;-84
2023/09/30 03:23:50;;;;;;;6.93;5.00;;;;;;;;;;6166725;23;20013;-84
2023/09/30 03:26:18;;;;;;;4.70;3.80;;;;;;;;;;6132020;23;20362;-84
2023/09/30 03:28:48;;;;;;;4.82;3.10;;;;;;;;;;6192287;23;20013;-84
2023/09/30 03:31:20;;;;;;;5.25;3.80;;;;;;;;;;6156048;23;20652;-84
2023/09/30 03:33:53;;;;;;;7.15;3.67;;;;;;;;;;6167353;23;20020;-84
2023/09/30 03:36:25;;;;;;;4.65;3.20;;;;;;;;;;6132643;23;20017;-84
2023/09/30 03:38:59;;;;;;;3.40;3.00;;;;;;;;;;6157240;23;20461;-84
2023/09/30 03:41:31;;;;;;;5.78;3.65;;;;;;;;;;6156258;23;20036;-84
2023/09/30 03:44:01;;;;;;;7.38;3.95;;;;;;;;;;6156229;23;20024;-84
2023/09/30 03:46:31;;;;;;;7.10;4.45;;;;;;;;;;6181962;23;20017;-84
2023/09/30 03:48:59;;;;;;;5.68;3.85;;;;;;;;;;6132648;23;20032;-84
2023/09/30 03:51:30;;;;;;;5.15;3.55;;;;;;;;;;6181426;23;20017;-84
2023/09/30 03:54:02;;;;;;;5.95;4.07;;;;;;;;;;6201507;23;20040;-84
2023/09/30 03:56:29;;;;;;;5.57;3.88;;;;;;;;;;6177036;23;20473;-84
2023/09/30 03:58:59;;;;;;;5.88;4.20;;;;;;;;;;6148746;23;20021;-84
2023/09/30 04:01:27;;;;;;;7.32;3.10;;;;;;;;;;6156609;23;20134;-84
2023/09/30 04:03:56;;;;;;;4.53;3.95;;;;;;;;;;6131724;23;20667;-84
2023/09/30 04:06:23;;;;;;;6.35;3.75;;;;;;;;;;6186897;23;20345;-84
2023/09/30 04:08:54;;;;;;;8.52;5.05;;;;;;;;;;6132133;23;20017;-84
2023/09/30 04:11:22;;;;;;;5.22;4.18;;;;;;;;;;6183528;23;20021;-84
2023/09/30 04:13:50;;;;;;;8.65;3.95;;;;;;;;;;6156801;23;20465;-84
2023/09/30 04:16:20;;;;;;;4.32;3.50;;;;;;;;;;6181781;23;20028;-84
2023/09/30 04:18:50;;;;;;;6.22;4.38;;;;;;;;;;6183673;23;20350;-84
2023/09/30 04:21:17;;;;;;;4.70;4.18;;;;;;;;;;6156790;23;20377;-84
2023/09/30 04:23:46;;;;;;;4.35;3.13;;;;;;;;;;6183581;23;20601;-84
2023/09/30 04:26:15;;;;;;;3.90;3.50;;;;;;;;;;6189086;23;20013;-85
2023/09/30 04:28:44;;;;;;;5.72;4.72;;;;;;;;;;6192224;23;20013;-84
2023/09/30 04:31:12;;;;;;;6.68;4.43;;;;;;;;;;6182006;23;20024;-84
2023/09/30 04:33:40;;;;;;;5.47;4.10;;;;;;;;;;6181385;23;20013;-84
2023/09/30 04:36:09;;;;;;;5.80;4.10;;;;;;;;;;6156120;23;20032;-84
2023/09/30 04:38:38;;;;;;;5.30;4.35;;;;;;;;;;6156913;23;20017;-84
2023/09/30 04:41:07;;;;;;;8.52;4.78;;;;;;;;;;6191413;23;20020;-84
2023/09/30 04:43:37;;;;;;;5.65;3.95;;;;;;;;;;6182648;23;20013;-84
2023/09/30 04:46:08;;;;;;;8.73;3.80;;;;;;;;;;6189349;23;20020;-84
2023/09/30 04:48:36;;;;;;;7.28;4.53;;;;;;;;;;6156040;23;20024;-84
2023/09/30 04:51:08;;;;;;;5.30;3.80;;;;;;;;;;6156654;23;20021;-84
2023/09/30 04:53:35;;;;;;;4.68;3.47;;;;;;;;;;6191742;23;20036;-84
2023/09/30 04:56:05;;;;;;;11.65;4.85;;;;;;;;;;6133226;23;20016;-84
2023/09/30 04:58:32;;;;;;;4.45;3.42;;;;;;;;;;6158613;23;20333;-84
2023/09/30 05:01:01;;;;;;;4.85;3.95;;;;;;;;;;6158742;23;20332;-85
2023/09/30 05:03:28;;;;;;;4.93;4.40;;;;;;;;;;6158943;23;20414;-84
2023/09/30 05:05:56;;;;;;;5.05;4.55;;;;;;;;;;6157638;23;20017;-83
2023/09/30 05:08:24;;;;;;;6.28;3.88;;;;;;;;;;6182973;23;20050;-84
2023/09/30 05:10:51;;;;;;;6.55;3.75;;;;;;;;;;6158560;23;20021;-84
2023/09/30 05:13:20;;;;;;;5.70;4.93;;;;;;;;;;6158167;23;20476;-84
2023/09/30 05:15:48;;;;;;;9.05;5.20;;;;;;;;;;6158516;23;20350;-84
2023/09/30 05:18:16;;;;;;;6.05;4.50;;;;;;;;;;6182525;23;20020;-84
2023/09/30 05:20:44;;;;;;;4.55;4.15;;;;;;;;;;6182038;23;20017;-83
2023/09/30 05:23:12;;;;;;;4.43;2.95;;;;;;;;;;6157923;23;20020;-84
2023/09/30 05:25:40;;;;;;;6.85;4.15;;;;;;;;;;6133452;23;20028;-84
2023/09/30 05:28:07;;;;;;;9.95;4.72;;;;;;;;;;6194481;23;20016;-84
2023/09/30 05:30:34;;;;;;;9.23;5.32;;;;;;;;;;6133187;23;20025;-84
2023/09/30 05:33:03;;;;;;;4.07;3.67;;;;;;;;;;6193666;23;20026;-84
2023/09/30 05:35:34;;;;;;;4.85;4.35;;;;;;;;;;6211871;23;20081;-84
2023/09/30 05:38:07;;;;;;;4.97;4.55;;;;;;;;;;6180194;23;20031;-83
2023/09/30 05:40:35;;;;;;;6.32;4.10;;;;;;;;;;6201816;23;20017;-84
2023/09/30 05:43:02;;;;;;;6.10;4.72;;;;;;;;;;6158153;23;20021;-84
2023/09/30 05:45:35;;;;;;;4.40;3.70;;;;;;;;;;6158855;23;20032;-84
2023/09/30 05:48:06;;;;;;;7.18;4.25;;;;;;;;;;6131759;23;20025;-84
2023/09/30 05:50:36;;;;;;;7.68;4.25;;;;;;;;;;6156684;23;20025;-84
2023/09/30 05:53:04;;;;;;;5.15;3.60;;;;;;;;;;6183359;23;20017;-84
2023/09/30 06:24:34;;;;;;;6.53;4.22;;;;;;;;;;6227437;22;20025;-80
2023/09/30 06:27:01;;;;;;;6.88;4.07;;;;;;;;;;6204875;23;20026;-81
2023/09/30 06:29:29;;;;;;;5.43;3.92;;;;;;;;;;6200011;23;20031;-81
2023/09/30 06:31:58;;;;;;;10.10;4.78;;;;;;;;;;6210772;23;20024;-81
2023/09/30 06:34:28;;;;;;;4.75;3.80;;;;;;;;;;6168829;23;20017;-84
2023/09/30 07:49:09;;;;;;;;;;;;;;;;;;;;;
2023/09/30 07:52:06;;;;;;;7.20;3.63;;;;;;;;;;5893133;24;20478;-82
2023/09/30 07:54:36;;;;;;;4.22;3.50;;;;;;;;;;5927040;23;20039;-84
2023/09/30 07:57:30;;;;;;;4.25;2.95;;;;;;;;;;5952535;24;20355;-84
2023/09/30 08:00:14;;;;;;;5.50;3.78;;;;;;;;;;5954702;24;20024;-84
2023/09/30 08:03:08;;;;;;;6.43;3.65;;;;;;;;;;6044923;23;20031;-84
2023/09/30 08:05:40;;;;;;;6.57;2.92;;;;;;;;;;6131885;23;20020;-84
2023/09/30 08:08:14;;;;;;;5.68;3.70;;;;;;;;;;6165710;23;20021;-84
2023/09/30 08:10:56;;;;;;;4.55;3.53;;;;;;;;;;6192648;23;20509;-84
2023/09/30 08:13:50;;;;;;;4.53;3.30;;;;;;;;;;6167641;23;20342;-84
2023/09/30 08:16:28;;;;;;;3.15;2.70;;;;;;;;;;6132930;23;20025;-84
2023/09/30 08:19:07;;;;;;;4.70;3.35;;;;;;;;;;6131305;23;20021;-84
2023/09/30 08:21:52;;;;;;;5.07;3.67;;;;;;;;;;6167787;23;20017;-84
2023/09/30 08:24:54;;;;;;;7.55;3.03;;;;;;;;;;6192725;23;20012;-84
2023/09/30 08:27:34;;;;;;;7.82;3.40;;;;;;;;;;6156788;23;20461;-84
2023/09/30 08:30:23;;;;;;;;;;;;;;;;;;;;;
2023/09/30 08:33:11;;;;;;;;;;;;;;;;;;;;;
2023/09/30 08:35:50;;;;;;;4.53;3.40;;;;;;;;;;6152245;23;20016;-84
2023/09/30 08:38:21;;;;;;;5.72;3.30;;;;;;;;;;6168188;23;20434;-84
2023/09/30 08:41:09;;;;;;;5.32;3.88;;;;;;;;;;6133118;23;20047;-84
2023/09/30 08:43:44;;;;;;;5.93;3.50;;;;;;;;;;6133701;23;20021;-84
2023/09/30 08:46:25;;;;;;;7.63;3.17;;;;;;;;;;6134749;23;20025;-84
2023/09/30 08:49:12;;;;;;;6.13;4.15;;;;;;;;;;6156862;23;20025;-84
2023/09/30 08:51:50;;;;;;;7.55;3.42;;;;;;;;;;6133532;23;20025;-84
2023/09/30 08:54:18;;;;;;;4.38;2.30;;;;;;;;;;6133601;23;20043;-84
2023/09/30 08:56:52;;;;;;;5.55;2.97;;;;;;;;;;6132656;23;20624;-84
2023/09/30 08:59:34;;;;;;;;;;;;;;;;;;;;;
2023/09/30 09:02:17;;;;;;;;;;;;;;;;;;;;;
2023/09/30 09:04:49;;;;;;;8.25;3.63;;;;;;;;;;6156961;23;20027;-85
2023/09/30 09:08:23;;;;;;;;;;;;;;;;;;;;;
2023/09/30 09:11:15;;;;;;;7.63;3.28;;;;;;;;;;5948530;23;20165;-85
2023/09/30 09:13:53;;;;;;;5.57;3.30;;;;;;;;;;6126379;23;20472;-84
2023/09/30 09:16:22;;;;;;;6.95;2.97;;;;;;;;;;6162469;23;20016;-84
2023/09/30 09:18:54;;;;;;;4.82;2.75;;;;;;;;;;6132756;23;20036;-84
2023/09/30 09:21:25;;;;;;;5.07;2.72;;;;;;;;;;6156394;23;20495;-84
2023/09/30 09:23:54;;;;;;;7.18;2.72;;;;;;;;;;6133543;23;20468;-84
2023/09/30 09:26:26;;;;;;;11.18;3.83;;;;;;;;;;6183777;23;20013;-84
2023/09/30 09:28:59;;;;;;;6.40;2.65;;;;;;;;;;6193475;23;20025;-84
2023/09/30 09:31:29;;;;;;;4.80;2.55;;;;;;;;;;6166800;23;20024;-85
2023/09/30 09:33:57;;;;;;;6.28;3.35;;;;;;;;;;6132980;23;20028;-84
2023/09/30 09:36:43;;;;;;;5.20;3.10;;;;;;;;;;6156322;23;20017;-84
2023/09/30 09:39:16;;;;;;;7.78;3.08;;;;;;;;;;6167241;23;20017;-84
2023/09/30 09:41:53;;;;;;;3.63;3.20;;;;;;;;;;6156805;23;20021;-84
2023/09/30 09:44:25;;;;;;;7.10;3.38;;;;;;;;;;6132798;23;20465;-84
2023/09/30 09:46:58;;;;;;;4.45;3.25;;;;;;;;;;6132379;23;20017;-84
2023/09/30 09:49:30;;;;;;;3.33;2.40;;;;;;;;;;6131904;23;20017;-84
2023/09/30 09:52:01;;;;;;;6.80;3.58;;;;;;;;;;6132194;23;20021;-84
2023/09/30 09:54:31;;;;;;;5.07;3.70;;;;;;;;;;6133314;23;20017;-84
2023/09/30 09:57:08;;;;;;;5.80;4.15;;;;;;;;;;6186280;23;20013;-84
2023/09/30 09:59:47;;;;;;;4.90;3.63;;;;;;;;;;6133832;23;20025;-84
2023/09/30 10:02:17;;;;;;;5.88;3.13;;;;;;;;;;6156101;23;20032;-84
2023/09/30 10:04:52;;;;;;;4.53;3.33;;;;;;;;;;6156067;23;20025;-84
2023/09/30 10:07:23;;;;;;;7.40;3.83;;;;;;;;;;6157761;23;20063;-84
2023/09/30 10:09:54;;;;;;;5.63;2.92;;;;;;;;;;6132371;23;20024;-84
2023/09/30 10:12:23;;;;;;;6.53;2.78;;;;;;;;;;6131627;23;20024;-84
2023/09/30 10:15:11;;;;;;;;;;;;;;;;;;;;;
2023/09/30 10:18:04;;;;;;;4.50;3.17;;;;;;;;;;6193063;23;20021;-84
2023/09/30 10:20:32;;;;;;;7.22;3.17;;;;;;;;;;6156403;23;20687;-84
2023/09/30 10:23:22;;;;;;;9.75;3.75;;;;;;;;;;6155825;23;20025;-84
2023/09/30 10:25:51;;;;;;;3.83;3.03;;;;;;;;;;6189419;23;20013;-84
2023/09/30 10:28:37;;;;;;;5.22;3.13;;;;;;;;;;6132805;23;20021;-84
2023/09/30 10:31:18;;;;;;;4.47;3.10;;;;;;;;;;6165720;23;20371;-84
2023/09/30 10:34:25;;;;;;;3.58;3.17;;;;;;;;;;6132820;23;20318;-84
2023/09/30 10:36:58;;;;;;;5.65;2.83;;;;;;;;;;6076578;23;20028;-83
2023/09/30 10:39:58;;;;;;;7.35;3.90;;;;;;;;;;6131550;23;20021;-84
2023/09/30 10:42:54;;;;;;;7.80;3.80;;;;;;;;;;6166544;23;20350;-84
2023/09/30 10:45:44;;;;;;;6.70;4.05;;;;;;;;;;6132583;23;20358;-84
2023/09/30 10:48:36;;;;;;;4.47;3.47;;;;;;;;;;6167025;23;20024;-84
2023/09/30 10:51:20;;;;;;;4.60;2.60;;;;;;;;;;6167062;23;20013;-84
2023/09/30 10:54:00;;;;;;;7.18;3.72;;;;;;;;;;6193828;23;20327;-84
2023/09/30 10:56:46;;;;;;;6.63;3.30;;;;;;;;;;6156557;23;20303;-84
2023/09/30 10:59:26;;;;;;;5.47;3.47;;;;;;;;;;6193548;23;20024;-84
2023/09/30 11:02:20;;;;;;;4.18;3.10;;;;;;;;;;6192507;23;20020;-84
2023/09/30 11:04:54;;;;;;;5.00;2.58;;;;;;;;;;6132424;23;20032;-84
2023/09/30 11:07:33;;;;;;;7.13;3.20;;;;;;;;;;6131004;23;20036;-84
2023/09/30 11:10:01;;;;;;;6.68;3.38;;;;;;;;;;6166989;23;20021;-84
2023/09/30 11:12:30;;;;;;;4.90;3.17;;;;;;;;;;6131158;23;20040;-84
2023/09/30 11:15:03;;;;;;;5.05;3.90;;;;;;;;;;6130636;23;20021;-84
2023/09/30 11:17:36;;;;;;;7.97;3.33;;;;;;;;;;6156639;23;20025;-84
2023/09/30 11:20:10;;;;;;;8.15;3.88;;;;;;;;;;6165988;23;20470;-84
2023/09/30 11:22:39;;;;;;;5.03;3.13;;;;;;;;;;6130549;23;20028;-85
2023/09/30 11:25:07;;;;;;;6.63;3.40;;;;;;;;;;6155715;23;20021;-84
2023/09/30 11:27:35;;;;;;;5.53;3.15;;;;;;;;;;6156647;23;20073;-84
2023/09/30 11:30:03;;;;;;;5.57;3.70;;;;;;;;;;6156572;23;20028;-84
2023/09/30 11:32:33;;;;;;;5.00;3.13;;;;;;;;;;6129672;23;20017;-84
2023/09/30 11:35:00;;;;;;;5.07;3.17;;;;;;;;;;6181166;23;20078;-84
2023/09/30 11:37:33;;;;;;;5.13;3.03;;;;;;;;;;6153407;23;20017;-84
2023/09/30 11:40:11;;;;;;;6.72;4.25;;;;;;;;;;6155544;23;20028;-84
2023/09/30 11:42:39;;;;;;;8.25;3.83;;;;;;;;;;6192914;23;20484;-84
2023/09/30 11:45:22;;;;;;;6.07;3.40;;;;;;;;;;6131247;23;20017;-84
2023/09/30 11:47:51;;;;;;;5.55;2.97;;;;;;;;;;6132105;23;20021;-84
2023/09/30 11:50:23;;;;;;;7.85;4.15;;;;;;;;;;6132211;23;20021;-84
2023/09/30 11:52:53;;;;;;;6.75;3.45;;;;;;;;;;6156508;23;20024;-84
2023/09/30 11:55:21;;;;;;;6.30;3.80;;;;;;;;;;6156460;23;20021;-84
2023/09/30 11:57:50;;;;;;;9.15;4.18;;;;;;;;;;6131865;23;20017;-84
2023/09/30 12:00:24;;;;;;;7.03;3.65;;;;;;;;;;6202145;23;20020;-85
2023/09/30 12:02:53;;;;;;;6.15;3.92;;;;;;;;;;6164358;23;20023;-84
2023/09/30 12:05:22;;;;;;;6.13;3.95;;;;;;;;;;6159070;23;20480;-84
2023/09/30 12:07:49;;;;;;;5.93;3.55;;;;;;;;;;6133769;23;20017;-84
2023/09/30 12:10:19;;;;;;;6.43;3.95;;;;;;;;;;6184906;23;20013;-84
2023/09/30 12:12:47;;;;;;;8.10;4.40;;;;;;;;;;6134056;23;20724;-84
2023/09/30 12:15:15;;;;;;;8.15;4.22;;;;;;;;;;6158100;23;20017;-84
2023/09/30 12:17:46;;;;;;;10.57;4.75;;;;;;;;;;6158155;23;20024;-85
2023/09/30 12:20:15;;;;;;;6.25;4.45;;;;;;;;;;6133944;23;20032;-85
2023/09/30 12:22:43;;;;;;;7.72;4.78;;;;;;;;;;6133995;23;20024;-84
2023/09/30 12:25:10;;;;;;;6.22;4.13;;;;;;;;;;6133630;23;20028;-85
2023/09/30 12:27:39;;;;;;;6.90;4.57;;;;;;;;;;6184582;23;20020;-84
2023/09/30 12:30:13;;;;;;;8.23;4.53;;;;;;;;;;6134367;23;20028;-84
2023/09/30 12:32:41;;;;;;;8.90;4.55;;;;;;;;;;6158690;23;20488;-84
2023/09/30 12:35:10;;;;;;;6.65;4.15;;;;;;;;;;6133394;23;20461;-84
2023/09/30 12:37:38;;;;;;;7.40;4.85;;;;;;;;;;6157789;23;20017;-84
2023/09/30 12:40:11;;;;;;;6.88;4.00;;;;;;;;;;6158600;23;20040;-84
2023/09/30 12:42:38;;;;;;;9.55;5.53;;;;;;;;;;6155242;23;20020;-84
2023/09/30 12:45:07;;;;;;;13.88;6.05;;;;;;;;;;6132088;23;20029;-85
2023/09/30 12:47:36;;;;;;;7.95;4.18;;;;;;;;;;6132847;23;20013;-85
2023/09/30 12:50:08;;;;;;;9.45;4.55;;;;;;;;;;6166410;23;20052;-85
2023/09/30 12:52:38;;;;;;;;;;;;;;;;;;6132906;23;20472;-84
2023/09/30 12:55:06;;;;;;;9.77;4.85;;;;;;;;;;6158036;23;19947;-84
2023/09/30 12:57:36;;;;;;;8.30;4.63;;;;;;;;;;6158370;23;20028;-84
2023/09/30 13:00:09;;;;;;;9.15;4.50;;;;;;;;;;6133595;23;20024;-84
2023/09/30 13:02:38;;;;;;;11.13;5.78;;;;;;;;;;6158471;23;20536;-84
2023/09/30 13:05:06;;;;;;;8.48;4.95;;;;;;;;;;6133857;23;20021;-84
2023/09/30 13:07:34;;;;;;;7.28;5.25;;;;;;;;;;6183731;23;20013;-84
2023/09/30 13:10:02;;;;;;;5.50;4.43;;;;;;;;;;6158924;23;20016;-85
2023/09/30 13:12:32;;;;;;;7.10;4.47;;;;;;;;;;6133925;23;20021;-85
2023/09/30 13:15:00;;;;;;;5.90;4.72;;;;;;;;;;6158073;23;20017;-85
2023/09/30 13:17:27;;;;;;;8.25;4.22;;;;;;;;;;6158971;23;20013;-84
2023/09/30 13:19:56;;;;;;;8.60;5.43;;;;;;;;;;6133716;23;20017;-85
2023/09/30 13:22:25;;;;;;;6.95;4.13;;;;;;;;;;6168260;23;20545;-85
2023/09/30 13:24:53;;;;;;;7.13;4.32;;;;;;;;;;6158019;23;20017;-85
2023/09/30 13:27:22;;;;;;;6.15;4.22;;;;;;;;;;6157355;23;20017;-84
2023/09/30 13:29:54;;;;;;;8.88;4.72;;;;;;;;;;6133783;23;20369;-85
2023/09/30 13:32:24;;;;;;;7.10;4.93;;;;;;;;;;6167206;23;20502;-85
2023/09/30 13:34:51;;;;;;;9.38;4.80;;;;;;;;;;6157331;23;20017;-85
2023/09/30 14:09:24;;;;;;;8.15;4.40;;;;;;;;;;6128225;23;20462;-85
2023/09/30 14:11:53;;;;;;;7.15;4.82;;;;;;;;;;6103798;23;20018;-85
2023/09/30 14:14:21;;;;;;;6.45;5.53;;;;;;;;;;6126930;23;20032;-85
2023/09/30 14:16:50;;;;;;;5.50;4.57;;;;;;;;;;6098523;23;20014;-86
2023/09/30 14:19:18;;;;;;;8.25;4.65;;;;;;;;;;6075215;23;20018;-86
2023/09/30 14:21:45;;;;;;;6.65;4.00;;;;;;;;;;6074558;23;20022;-85
2023/09/30 14:24:15;;;;;;;11.35;5.07;;;;;;;;;;6073670;23;20025;-85
2023/09/30 14:26:46;;;;;;;7.68;4.63;;;;;;;;;;6074566;23;20022;-85
2023/09/30 14:29:13;;;;;;;6.60;4.32;;;;;;;;;;6099333;23;20018;-85
2023/09/30 14:31:41;;;;;;;8.45;3.72;;;;;;;;;;6124410;23;20013;-85
2023/09/30 14:34:11;;;;;;;6.63;4.15;;;;;;;;;;6121902;23;20781;-85
2023/09/30 15:30:40;;;;;;;5.88;4.47;;;;;;;;;;6242503;23;20007;-85
2023/09/30 15:33:07;;;;;;;12.10;4.40;;;;;;;;;;6191376;23;20480;-85
2023/09/30 15:35:34;;;;;;;4.95;3.53;;;;;;;;;;6191095;22;20017;-85
2023/09/30 15:38:03;;;;;;;5.80;4.15;;;;;;;;;;6190638;23;20031;-85
2023/09/30 15:40:32;;;;;;;5.75;4.32;;;;;;;;;;6214560;23;20016;-85
2023/09/30 15:43:01;;;;;;;7.82;4.43;;;;;;;;;;6227323;23;20038;-85
2023/09/30 15:45:29;;;;;;;6.80;4.60;;;;;;;;;;6216386;22;20023;-85
2023/09/30 15:47:57;;;;;;;7.72;4.20;;;;;;;;;;6191598;23;20020;-85
2023/09/30 15:50:25;;;;;;;7.95;4.30;;;;;;;;;;6215690;23;20016;-85
2023/09/30 15:52:52;;;;;;;6.30;3.70;;;;;;;;;;6216356;23;20024;-85
2023/09/30 15:55:19;;;;;;;6.45;4.03;;;;;;;;;;6191186;22;20016;-87
2023/09/30 17:05:00;;;;;;;6.57;4.15;;;;;;;;;;6222710;22;20360;-85
2023/09/30 17:07:30;;;;;;;6.97;4.38;;;;;;;;;;6215215;23;20040;-85
2023/09/30 17:10:00;;;;;;;6.78;4.35;;;;;;;;;;6187514;23;20038;-85
2023/09/30 17:12:27;;;;;;;7.53;5.45;;;;;;;;;;6188458;23;20470;-85
2023/09/30 17:14:54;;;;;;;8.38;4.70;;;;;;;;;;6188213;23;20024;-85
2023/09/30 17:17:24;;;;;;;7.15;4.80;;;;;;;;;;6163359;23;20013;-85
2023/09/30 17:19:54;;;;;;;6.70;5.40;;;;;;;;;;6187929;23;20016;-85
2023/09/30 17:22:23;;;;;;;5.47;4.70;;;;;;;;;;6187420;23;20028;-85
2023/09/30 17:24:52;;;;;;;6.70;4.20;;;;;;;;;;6197794;23;20038;-85
2023/09/30 17:27:24;;;;;;;5.80;4.18;;;;;;;;;;6189724;23;20040;-84
2023/09/30 17:29:56;;;;;;;8.93;4.78;;;;;;;;;;6163434;23;20043;-84
2023/09/30 17:32:24;;;;;;;7.68;4.50;;;;;;;;;;6162696;23;20024;-84
2023/09/30 17:34:52;;;;;;;9.02;5.05;;;;;;;;;;6160605;23;20020;-85
2023/09/30 17:37:19;;;;;;;10.30;4.95;;;;;;;;;;6161667;23;20017;-85
2023/09/30 17:39:51;;;;;;;16.48;5.25;;;;;;;;;;6188430;23;20481;-85
2023/09/30 17:42:19;;;;;;;5.45;4.93;;;;;;;;;;6214499;23;20016;-84
2023/09/30 17:44:49;;;;;;;5.82;4.32;;;;;;;;;;6187845;23;20027;-84
2023/09/30 19:06:31;;;;;;;7.82;4.50;;;;;;;;;;6230723;22;20023;-84
2023/09/30 19:08:58;;;;;;;6.88;5.22;;;;;;;;;;6160637;23;20016;-84
2023/09/30 19:11:28;;;;;;;7.25;5.22;;;;;;;;;;6186193;23;20500;-84
2023/09/30 19:13:55;;;;;;;7.55;4.82;;;;;;;;;;6196670;23;20013;-84
2023/09/30 19:16:24;;;;;;;6.03;5.13;;;;;;;;;;6162129;23;20017;-84
2023/09/30 19:18:51;;;;;;;7.28;5.78;;;;;;;;;;6162003;23;20017;-84
2023/09/30 19:21:20;;;;;;;5.63;5.13;;;;;;;;;;6161808;23;20673;-84
2023/09/30 19:23:51;;;;;;;7.15;5.53;;;;;;;;;;6186779;23;20020;-84
2023/09/30 19:26:18;;;;;;;7.95;4.55;;;;;;;;;;6160784;23;20031;-84
2023/09/30 19:28:48;;;;;;;8.30;5.85;;;;;;;;;;6161347;23;20012;-84
2023/09/30 19:31:16;;;;;;;7.95;5.65;;;;;;;;;;6186288;23;20020;-84
2023/09/30 19:33:45;;;;;;;10.07;5.80;;;;;;;;;;6186276;23;20016;-84
2023/09/30 19:36:14;;;;;;;7.57;5.65;;;;;;;;;;6161038;23;20017;-84
2023/09/30 19:38:41;;;;;;;9.18;5.43;;;;;;;;;;6241366;22;20020;-82
2023/09/30 19:41:16;;;;;;;8.55;5.85;;;;;;;;;;6247719;23;20022;-81
2023/09/30 19:43:43;;;;;;;9.13;6.05;;;;;;;;;;6195805;23;20024;-82
2023/09/30 19:46:11;;;;;;;9.55;4.93;;;;;;;;;;6166493;23;20024;-82
2023/09/30 19:48:39;;;;;;;8.30;5.78;;;;;;;;;;6166574;23;20013;-82
2023/09/30 19:51:09;;;;;;;8.77;6.10;;;;;;;;;;6190146;23;20016;-82
2023/09/30 19:53:38;;;;;;;9.13;5.95;;;;;;;;;;6165600;23;20026;-82
2023/09/30 19:56:07;;;;;;;9.25;6.20;;;;;;;;;;6191863;23;20519;-82
2023/09/30 19:58:38;;;;;;;7.13;5.85;;;;;;;;;;6227182;23;20017;-82
2023/09/30 20:01:08;;;;;;;8.05;6.70;;;;;;;;;;6200466;23;20012;-82
2023/09/30 20:03:36;;;;;;;6.35;5.75;;;;;;;;;;6190135;23;20020;-82
2023/09/30 20:06:17;;;;;;;11.18;6.07;;;;;;;;;;6190907;23;20021;-82
2023/09/30 20:08:45;;;;;;;8.23;5.57;;;;;;;;;;6229039;23;20008;-82
2023/09/30 20:11:20;;;;;;;7.88;6.05;;;;;;;;;;6217711;23;20032;-82
2023/09/30 20:13:49;;;;;;;7.18;5.30;;;;;;;;;;6193703;23;20015;-82
2023/09/30 20:16:21;;;;;;;8.07;4.70;;;;;;;;;;6193781;23;20364;-82
2023/09/30 20:18:51;;;;;;;6.38;5.55;;;;;;;;;;6227358;23;20013;-82
2023/09/30 20:21:21;;;;;;;10.27;5.43;;;;;;;;;;6190136;23;20494;-82
2023/09/30 20:23:50;;;;;;;8.82;5.90;;;;;;;;;;6165320;23;20017;-82
2023/09/30 20:26:23;;;;;;;12.68;6.15;;;;;;;;;;6192745;23;20460;-82
2023/09/30 20:28:51;;;;;;;9.70;6.28;;;;;;;;;;6168716;23;20412;-82
2023/09/30 20:31:21;;;;;;;9.80;5.78;;;;;;;;;;6193188;23;20021;-82
2023/09/30 20:33:49;;;;;;;7.75;6.10;;;;;;;;;;6193580;23;20493;-82
2023/09/30 20:36:16;;;;;;;5.97;5.25;;;;;;;;;;6167063;23;20017;-82
2023/09/30 20:38:46;;;;;;;6.18;5.57;;;;;;;;;;6168140;23;20023;-82
2023/09/30 20:41:13;;;;;;;12.18;7.13;;;;;;;;;;6167400;23;20024;-81
2023/09/30 20:43:43;;;;;;;8.25;6.28;;;;;;;;;;6219467;23;20017;-81
2023/09/30 20:46:16;;;;;;;9.35;6.97;;;;;;;;;;6224786;23;20457;-81
2023/09/30 20:48:45;;;;;;;6.65;5.57;;;;;;;;;;6165311;23;20838;-82
2023/09/30 20:51:12;;;;;;;11.40;6.43;;;;;;;;;;6165852;23;20017;-82